Eckville, Pennsylvania
Current Conditions -  °F | °C
As of 8:54 AM on Wednesday 28 Jan 2015 (Local Time) from KRDG Reporting Station
Clear Clear  
Wind Chill:   Ceiling: Unl
Heat Index: 19°   Visibility: 10mi
Dew Point:   Wind: 9mph
Humidity: 46%   Direction: 310°NW
Pressure: 30.14"   Gusts: NA
Location:  40.6329°N, 75.8768°W
Report Text: KRDG 281354Z 31008KT 10SM CLR M07/M17 A3014 RMK AO2 SLP218 T10721172
Loading
Personal Weather Stations






























Interactive Weather Map New forecast layout! Learn more

10-Day Weather Forecast

Advertisements
Track Severe Weather on mobile